createdAt,value
2019-01-19T00:00:22.917Z,3.80
2019-01-19T00:03:32.035Z,4.03
2019-01-19T00:06:35.600Z,3.77
2019-01-19T00:09:37.812Z,4.20
2019-01-19T00:12:31.247Z,3.93
2019-01-19T00:18:42.851Z,5.00
2019-01-19T00:21:32.729Z,5.37
2019-01-19T00:27:37.975Z,8.50
2019-01-19T00:30:31.685Z,6.43
2019-01-19T00:33:28.582Z,6.43
2019-01-19T00:36:27.999Z,5.60
2019-01-19T00:39:21.027Z,6.40
2019-01-19T00:42:20.263Z,6.40
2019-01-19T00:45:19.676Z,6.13
2019-01-19T00:48:18.850Z,5.97
2019-01-19T00:51:17.999Z,6.30
2019-01-19T00:54:17.539Z,5.87
2019-01-19T00:57:16.736Z,5.60
2019-01-19T01:00:12.710Z,4.77
2019-01-19T01:03:05.127Z,5.23
2019-01-19T01:05:58.100Z,4.30
2019-01-19T01:08:51.466Z,4.37
2019-01-19T01:11:38.884Z,4.47
2019-01-19T01:14:35.323Z,3.33
2019-01-19T01:17:25.581Z,3.60
2019-01-19T01:20:22.068Z,3.90
2019-01-19T01:23:27.849Z,4.67
2019-01-19T01:26:33.454Z,4.27
2019-01-19T01:29:25.745Z,4.90
2019-01-19T01:32:19.143Z,4.80
2019-01-19T01:35:20.343Z,5.07
2019-01-19T01:41:49.126Z,6.57
2019-01-19T01:44:44.815Z,6.27
2019-01-19T01:47:50.109Z,6.97
2019-01-19T01:50:40.201Z,6.23
2019-01-19T01:53:42.595Z,5.80
2019-01-19T01:56:29.677Z,7.03
2019-01-19T01:59:19.287Z,5.73
2019-01-19T02:02:15.689Z,6.10
2019-01-19T02:05:02.890Z,5.90
2019-01-19T02:07:55.188Z,5.77
2019-01-19T02:17:21.984Z,5.67
2019-01-19T02:20:21.945Z,6.13
2019-01-19T02:26:30.483Z,5.97
2019-01-19T02:29:27.195Z,6.33
2019-01-19T02:32:29.706Z,5.90
2019-01-19T02:35:36.852Z,5.27
2019-01-19T02:38:45.416Z,5.13
2019-01-19T02:41:40.785Z,5.47
2019-01-19T02:44:46.486Z,5.90
2019-01-19T02:54:35.556Z,5.23
2019-01-19T03:04:40.759Z,5.40
2019-01-19T03:07:28.894Z,5.43
2019-01-19T03:10:25.561Z,7.57
2019-01-19T03:13:48.101Z,7.25
2019-01-19T03:23:07.857Z,4.53
2019-01-19T03:26:05.532Z,6.05
2019-01-19T03:29:07.511Z,4.97
2019-01-19T03:32:11.231Z,5.20
2019-01-19T03:35:10.370Z,4.37
2019-01-19T03:41:50.068Z,4.60
2019-01-19T03:44:48.733Z,6.47
2019-01-19T03:47:39.811Z,5.27
2019-01-19T03:50:41.398Z,4.03
2019-01-19T03:53:40.976Z,4.27
2019-01-19T03:56:56.440Z,4.57
2019-01-19T03:59:50.034Z,4.73
2019-01-19T04:06:12.434Z,4.80
2019-01-19T04:09:01.214Z,4.50
2019-01-19T04:11:48.662Z,4.57
2019-01-19T04:14:36.809Z,4.13
2019-01-19T04:17:27.268Z,6.60
2019-01-19T04:20:43.954Z,4.77
2019-01-19T04:23:31.904Z,4.30
2019-01-19T04:26:19.648Z,4.50
2019-01-19T04:29:08.402Z,4.57
2019-01-19T04:31:57.657Z,4.60
2019-01-19T04:34:45.627Z,5.72
2019-01-19T04:37:34.670Z,4.37
2019-01-19T04:40:22.270Z,4.10
2019-01-19T04:43:10.081Z,4.27
2019-01-19T04:45:57.779Z,5.90
2019-01-19T04:48:45.264Z,6.03
2019-01-19T04:51:33.088Z,4.60
2019-01-19T04:54:20.467Z,4.83
2019-01-19T04:57:15.971Z,4.00
2019-01-19T05:00:13.980Z,4.07
2019-01-19T05:03:01.708Z,4.33
2019-01-19T05:05:48.883Z,4.00
2019-01-19T05:08:52.412Z,4.27
2019-01-19T05:11:40.788Z,4.17
2019-01-19T05:14:28.104Z,4.10
2019-01-19T05:17:23.710Z,3.93
2019-01-19T05:20:19.277Z,3.73
2019-01-19T05:23:06.554Z,4.07
2019-01-19T05:25:53.515Z,4.00
2019-01-19T05:28:40.923Z,4.10
2019-01-19T05:31:29.354Z,3.93
2019-01-19T05:34:24.794Z,4.60
2019-01-19T05:43:32.180Z,6.12
2019-01-19T05:46:33.269Z,4.23
2019-01-19T05:49:20.583Z,4.53
2019-01-19T05:52:09.130Z,3.87
2019-01-19T05:54:56.245Z,4.10
2019-01-19T05:57:43.604Z,6.15
2019-01-19T06:00:31.148Z,4.57
2019-01-19T06:03:18.575Z,4.07
2019-01-19T06:15:33.442Z,4.00
2019-01-19T06:18:36.027Z,4.20
2019-01-19T06:21:23.544Z,3.73
2019-01-19T06:24:11.622Z,3.67
2019-01-19T06:36:17.304Z,4.00
2019-01-19T06:39:04.588Z,4.60
2019-01-19T06:41:52.287Z,4.27
2019-01-19T06:44:39.680Z,4.97
2019-01-19T06:47:26.855Z,4.30
2019-01-19T06:53:20.362Z,6.78
2019-01-19T06:56:08.697Z,5.00
2019-01-19T06:58:56.100Z,4.77
2019-01-19T07:01:43.807Z,6.57
2019-01-19T07:04:32.295Z,5.30
2019-01-19T07:07:20.742Z,5.10
2019-01-19T07:10:20.581Z,5.30
2019-01-19T07:13:11.975Z,4.93
2019-01-19T07:19:16.575Z,5.57
2019-01-19T07:22:03.804Z,7.65
2019-01-19T07:24:50.965Z,6.37
2019-01-19T07:30:44.637Z,6.93
2019-01-19T07:33:31.878Z,10.98
2019-01-19T07:36:19.240Z,8.13
2019-01-19T07:39:06.870Z,6.33
2019-01-19T07:41:53.917Z,7.47
2019-01-19T07:44:43.835Z,6.70
2019-01-19T07:47:31.188Z,8.00
2019-01-19T07:50:19.003Z,7.60
2019-01-19T07:53:06.542Z,10.27
2019-01-19T07:55:54.802Z,12.18
2019-01-19T07:58:42.506Z,10.25
2019-01-19T08:01:29.923Z,7.47
2019-01-19T08:04:18.243Z,6.37
2019-01-19T08:07:05.436Z,5.63
2019-01-19T08:09:52.451Z,5.57
2019-01-19T08:12:39.897Z,5.60
2019-01-19T08:15:27.281Z,4.87
2019-01-19T08:18:14.846Z,5.47
2019-01-19T08:21:02.895Z,7.53
2019-01-19T08:23:50.613Z,7.13
2019-01-19T08:26:38.358Z,6.10
2019-01-19T08:29:26.085Z,5.53
2019-01-19T08:32:14.218Z,5.70
2019-01-19T08:35:02.353Z,5.57
2019-01-19T08:37:49.522Z,5.37
2019-01-19T08:40:36.683Z,5.43
2019-01-19T08:43:24.673Z,5.70
2019-01-19T08:46:11.912Z,5.67
2019-01-19T08:48:59.051Z,5.47
2019-01-19T08:51:46.472Z,5.37
2019-01-19T08:54:33.994Z,5.17
2019-01-19T08:57:21.056Z,5.87
2019-01-19T09:00:08.575Z,6.17
2019-01-19T09:02:56.054Z,7.65
2019-01-19T09:05:43.477Z,5.57
2019-01-19T09:08:30.611Z,5.83
2019-01-19T09:11:17.738Z,7.33
2019-01-19T09:14:04.931Z,7.60
2019-01-19T09:16:54.710Z,7.55
2019-01-19T09:19:42.159Z,7.03
2019-01-19T09:22:29.615Z,5.70
2019-01-19T09:25:16.883Z,5.60
2019-01-19T09:28:04.548Z,5.20
2019-01-19T09:30:52.675Z,5.53
2019-01-19T09:33:39.899Z,4.90
2019-01-19T09:36:27.256Z,5.07
2019-01-19T09:39:16.896Z,6.95
2019-01-19T09:42:04.065Z,7.00
2019-01-19T09:44:51.461Z,5.87
2019-01-19T09:47:38.662Z,5.47
2019-01-19T09:50:28.861Z,5.07
2019-01-19T09:53:16.473Z,6.97
2019-01-19T09:56:04.112Z,5.90
2019-01-19T09:58:51.527Z,5.60
2019-01-19T10:01:39.019Z,5.30
2019-01-19T10:04:26.017Z,4.57
2019-01-19T10:07:13.392Z,5.13
2019-01-19T10:10:00.891Z,5.03
2019-01-19T10:12:48.459Z,4.80
2019-01-19T10:15:35.719Z,5.07
2019-01-19T10:18:25.826Z,4.80
2019-01-19T10:21:13.145Z,4.90
2019-01-19T10:24:01.679Z,4.50
2019-01-19T10:26:49.260Z,5.30
2019-01-19T10:32:47.924Z,4.70
2019-01-19T10:35:33.442Z,5.07
2019-01-19T10:38:20.950Z,4.70
2019-01-19T10:41:08.410Z,4.20
2019-01-19T10:43:55.813Z,4.63
2019-01-19T10:46:43.482Z,4.17
2019-01-19T10:49:31.197Z,4.27
2019-01-19T10:52:18.515Z,4.00
2019-01-19T10:55:05.926Z,3.80
2019-01-19T10:58:08.848Z,3.70
2019-01-19T11:00:56.037Z,3.87
2019-01-19T11:03:43.815Z,3.60
2019-01-19T11:06:31.192Z,3.73
2019-01-19T11:09:18.349Z,3.80
2019-01-19T11:12:05.679Z,3.60
2019-01-19T11:14:54.050Z,4.43
2019-01-19T11:17:41.449Z,4.20
2019-01-19T11:23:39.779Z,4.60
2019-01-19T11:26:22.630Z,4.63
2019-01-19T11:29:16.393Z,4.50
2019-01-19T11:32:04.971Z,4.60
2019-01-19T11:34:52.444Z,4.47
2019-01-19T11:37:39.970Z,4.73
2019-01-19T11:40:27.286Z,3.83
2019-01-19T11:43:14.448Z,4.77
2019-01-19T11:46:05.337Z,4.73
2019-01-19T11:48:53.499Z,4.53
2019-01-19T11:51:42.440Z,5.57
2019-01-19T11:54:30.032Z,5.30
2019-01-19T12:00:35.415Z,4.23
2019-01-19T12:03:22.845Z,3.77
2019-01-19T12:06:11.190Z,3.67
2019-01-19T12:08:58.204Z,4.73
2019-01-19T12:11:46.855Z,4.20
2019-01-19T12:14:34.382Z,3.83
2019-01-19T12:17:22.001Z,4.47
2019-01-19T12:20:21.483Z,3.87
2019-01-19T12:23:08.886Z,4.47
2019-01-19T12:25:56.336Z,4.40
2019-01-19T12:28:43.401Z,4.33
2019-01-19T12:31:30.518Z,4.53
2019-01-19T12:34:20.467Z,4.37
2019-01-19T12:37:08.408Z,4.63
2019-01-19T12:39:55.507Z,5.40
2019-01-19T12:42:43.132Z,4.70
2019-01-19T12:45:30.880Z,4.30
2019-01-19T12:48:18.141Z,4.30
2019-01-19T12:51:05.792Z,3.90
2019-01-19T12:53:52.868Z,4.13
2019-01-19T12:56:40.146Z,4.10
2019-01-19T12:59:27.303Z,3.77
2019-01-19T13:02:14.795Z,3.67
2019-01-19T13:05:02.067Z,3.20
2019-01-19T13:07:49.502Z,3.67
2019-01-19T13:10:38.584Z,3.37
2019-01-19T13:13:26.147Z,2.70
2019-01-19T13:16:35.613Z,2.53
2019-01-19T13:19:25.970Z,2.70
2019-01-19T13:22:13.540Z,3.50
2019-01-19T13:25:09.271Z,2.90
2019-01-19T13:28:08.675Z,2.73
2019-01-19T13:31:20.688Z,2.40
2019-01-19T13:34:10.717Z,2.50
2019-01-19T13:37:04.051Z,3.27
2019-01-19T13:39:52.694Z,2.90
2019-01-19T13:42:40.607Z,2.97
2019-01-19T13:45:33.897Z,3.10
2019-01-19T13:48:36.354Z,3.13
2019-01-19T13:51:29.455Z,3.17
2019-01-19T13:54:22.050Z,3.20
2019-01-19T13:57:15.247Z,3.27
2019-01-19T14:00:20.899Z,9.30
2019-01-19T14:03:30.624Z,7.12
2019-01-19T14:06:24.037Z,4.03
2019-01-19T14:09:19.953Z,3.50
2019-01-19T14:15:24.267Z,3.58
2019-01-19T14:18:14.741Z,4.80
2019-01-19T14:21:20.455Z,3.20
2019-01-19T14:24:08.012Z,1.90
2019-01-19T14:27:10.194Z,2.60
2019-01-19T14:33:37.580Z,2.30
2019-01-19T14:36:56.498Z,2.07
2019-01-19T14:40:00.215Z,2.13
2019-01-19T14:43:01.168Z,2.70
2019-01-19T14:45:52.058Z,2.43
2019-01-19T14:49:00.916Z,2.20
2019-01-19T14:52:03.660Z,2.20
2019-01-19T14:55:18.708Z,2.30
2019-01-19T14:58:31.124Z,2.07
2019-01-19T15:01:24.806Z,2.20
2019-01-19T15:04:26.651Z,2.60
2019-01-19T15:11:00.311Z,2.60
2019-01-19T15:14:03.239Z,2.30
2019-01-19T15:17:14.396Z,3.40
2019-01-19T15:20:08.259Z,2.40
2019-01-19T15:23:18.721Z,2.50
2019-01-19T15:26:36.522Z,2.50
2019-01-19T15:29:38.803Z,2.87
2019-01-19T15:32:45.748Z,3.35
2019-01-19T15:38:58.803Z,2.80
2019-01-19T15:42:04.724Z,3.03
2019-01-19T15:45:01.434Z,4.23
2019-01-19T15:48:04.826Z,7.87
2019-01-19T15:51:18.691Z,7.87
2019-01-19T15:54:08.991Z,3.97
2019-01-19T15:57:20.097Z,7.18
2019-01-19T16:00:36.118Z,5.60
2019-01-19T16:03:57.593Z,2.27
2019-01-19T16:07:17.330Z,2.30
2019-01-19T16:10:10.687Z,2.00
2019-01-19T16:13:06.735Z,1.70
2019-01-19T16:16:15.957Z,2.17
2019-01-19T16:19:13.633Z,2.20
2019-01-19T16:22:03.596Z,2.30
2019-01-19T16:25:15.695Z,3.00
2019-01-19T16:28:18.631Z,2.63
2019-01-19T16:31:09.432Z,2.90
2019-01-19T16:34:12.945Z,3.47
2019-01-19T16:40:34.699Z,2.63
2019-01-19T16:43:25.742Z,2.33
2019-01-19T16:46:44.667Z,2.95
2019-01-19T16:49:46.978Z,2.30
2019-01-19T16:52:36.879Z,2.57
2019-01-19T16:55:46.732Z,3.17
2019-01-19T17:08:55.420Z,2.63
2019-01-19T17:12:01.465Z,2.20
2019-01-19T17:14:58.473Z,2.70
2019-01-19T17:18:10.917Z,2.60
2019-01-19T17:21:13.377Z,2.63
2019-01-19T17:24:17.671Z,4.30
2019-01-19T17:27:29.273Z,3.60
2019-01-19T17:30:22.218Z,3.63
2019-01-19T17:33:20.670Z,3.93
2019-01-19T17:36:30.915Z,5.90
2019-01-19T17:39:45.752Z,6.47
2019-01-19T17:45:59.944Z,6.77
2019-01-19T17:48:57.573Z,8.60
2019-01-19T17:51:52.908Z,7.93
2019-01-19T17:55:05.147Z,5.77
2019-01-19T18:01:13.075Z,6.03
2019-01-19T18:04:04.771Z,5.00
2019-01-19T18:07:32.368Z,5.23
2019-01-19T18:10:21.081Z,5.17
2019-01-19T18:13:32.015Z,6.60
2019-01-19T18:16:22.407Z,6.72
2019-01-19T18:19:13.251Z,5.87
2019-01-19T18:22:22.714Z,4.73
2019-01-19T18:25:10.966Z,5.27
2019-01-19T18:31:45.214Z,5.63
2019-01-19T18:34:41.764Z,5.27
2019-01-19T18:37:41.959Z,8.27
2019-01-19T18:40:35.947Z,5.67
2019-01-19T18:43:24.231Z,6.33
2019-01-19T18:46:16.816Z,6.37
2019-01-19T18:49:13.528Z,5.60
2019-01-19T18:52:02.667Z,8.15
2019-01-19T18:55:01.183Z,6.50
2019-01-19T18:57:52.963Z,8.35
2019-01-19T19:00:53.243Z,7.03
2019-01-19T19:04:06.507Z,6.70
2019-01-19T19:07:13.765Z,5.37
2019-01-19T19:10:32.252Z,6.03
2019-01-19T19:13:17.344Z,6.40
2019-01-19T19:16:18.166Z,6.40
2019-01-19T19:19:14.043Z,6.50
2019-01-19T19:28:59.880Z,9.63
2019-01-19T19:32:03.506Z,7.23
2019-01-19T19:35:11.826Z,6.90
2019-01-19T19:38:17.022Z,6.53
2019-01-19T19:41:08.444Z,7.00
2019-01-19T19:44:17.640Z,6.70
2019-01-19T19:47:16.692Z,5.93
2019-01-19T19:50:29.380Z,7.67
2019-01-19T19:53:18.543Z,6.77
2019-01-19T19:56:05.341Z,7.13
2019-01-19T20:05:07.495Z,6.67
2019-01-19T20:07:55.094Z,6.40
2019-01-19T20:10:42.399Z,8.80
2019-01-19T20:13:30.389Z,6.97
2019-01-19T20:16:17.987Z,6.90
2019-01-19T20:19:09.744Z,6.43
2019-01-19T20:21:58.764Z,5.87
2019-01-19T20:24:48.864Z,6.33
2019-01-19T20:27:37.345Z,6.67
2019-01-19T20:30:30.449Z,6.40
2019-01-19T20:36:26.935Z,7.53
2019-01-19T20:39:18.444Z,7.40
2019-01-19T20:42:05.972Z,7.00
2019-01-19T20:44:56.065Z,6.60
2019-01-19T20:47:44.488Z,10.37
2019-01-19T20:50:32.121Z,7.13
2019-01-19T20:53:19.781Z,7.30
2019-01-19T20:56:07.109Z,6.83
2019-01-19T20:58:54.910Z,7.50
2019-01-19T21:01:45.234Z,6.87
2019-01-19T21:04:32.744Z,7.40
2019-01-19T21:07:25.604Z,7.77
2019-01-19T21:10:16.204Z,7.63
2019-01-19T21:16:19.564Z,7.83
2019-01-19T21:19:07.193Z,8.57
2019-01-19T21:21:57.792Z,8.23
2019-01-19T21:24:45.354Z,8.37
2019-01-19T21:27:35.496Z,12.05
2019-01-19T21:30:23.699Z,15.23
2019-01-19T21:33:11.607Z,23.25
2019-01-19T21:36:00.834Z,20.07
2019-01-19T21:38:48.533Z,15.52
2019-01-19T21:41:36.240Z,10.10
2019-01-19T21:44:25.320Z,10.20
2019-01-19T21:47:12.000Z,10.10
2019-01-19T21:49:59.627Z,10.17
2019-01-19T21:52:47.893Z,8.97
2019-01-19T21:55:37.415Z,10.23
2019-01-19T21:58:24.871Z,10.47
2019-01-19T22:01:12.704Z,9.97
2019-01-19T22:04:00.772Z,9.70
2019-01-19T22:06:48.247Z,13.90
2019-01-19T22:09:35.636Z,10.00
2019-01-19T22:12:23.493Z,10.63
2019-01-19T22:15:10.804Z,10.07
2019-01-19T22:18:00.510Z,10.17
2019-01-19T22:20:47.795Z,10.53
2019-01-19T22:23:35.495Z,14.95
2019-01-19T22:26:22.984Z,11.40
2019-01-19T22:29:12.587Z,10.90
2019-01-19T22:32:02.188Z,11.63
2019-01-19T22:34:49.623Z,10.70
2019-01-19T22:37:36.905Z,11.70
2019-01-19T22:40:25.006Z,11.13
2019-01-19T22:43:12.300Z,11.03
2019-01-19T22:45:59.430Z,11.93
2019-01-19T22:48:46.698Z,10.90
2019-01-19T22:51:34.800Z,16.20
2019-01-19T22:54:24.835Z,13.20
2019-01-19T22:57:12.314Z,12.27
2019-01-19T23:00:07.724Z,12.20
2019-01-19T23:02:55.629Z,33.13
2019-01-19T23:08:51.256Z,28.10
2019-01-19T23:11:46.490Z,13.73
2019-01-19T23:14:33.595Z,12.93
2019-01-19T23:17:23.168Z,11.70
2019-01-19T23:23:19.588Z,10.23
2019-01-19T23:26:07.374Z,16.37
2019-01-19T23:28:56.813Z,12.30
2019-01-19T23:31:44.553Z,12.07
2019-01-19T23:34:36.169Z,10.90
2019-01-19T23:37:40.164Z,17.55
2019-01-19T23:40:27.853Z,11.90
2019-01-19T23:43:15.004Z,12.13
2019-01-19T23:46:03.025Z,11.80
2019-01-19T23:48:51.283Z,13.53
2019-01-19T23:51:39.934Z,12.33
2019-01-19T23:54:27.359Z,12.73
2019-01-19T23:57:14.617Z,11.90
